sensor_id;sensor_type;location;lat;lon;timestamp;temperature;humidity
52765;DHT22;38650;44.536;18.664;2023-02-01T00:01:54;3.40;99.90
52765;DHT22;38650;44.536;18.664;2023-02-01T00:04:20;3.40;99.90
52765;DHT22;38650;44.536;18.664;2023-02-01T00:06:46;3.30;99.90
52765;DHT22;38650;44.536;18.664;2023-02-01T00:09:12;3.40;99.90
52765;DHT22;38650;44.536;18.664;2023-02-01T00:11:38;3.50;99.90
52765;DHT22;38650;44.536;18.664;2023-02-01T00:14:03;3.50;99.90
52765;DHT22;38650;44.536;18.664;2023-02-01T00:16:30;3.60;99.90
52765;DHT22;38650;44.536;18.664;2023-02-01T00:19:09;3.60;99.90
52765;DHT22;38650;44.536;18.664;2023-02-01T00:21:35;3.50;99.90
52765;DHT22;38650;44.536;18.664;2023-02-01T00:24:00;3.50;99.90
52765;DHT22;38650;44.536;18.664;2023-02-01T00:26:34;3.50;99.90
52765;DHT22;38650;44.536;18.664;2023-02-01T00:29:00;3.60;99.90
52765;DHT22;38650;44.536;18.664;2023-02-01T00:31:27;3.50;99.90
52765;DHT22;38650;44.536;18.664;2023-02-01T00:33:53;3.40;99.90
52765;DHT22;38650;44.536;18.664;2023-02-01T00:36:18;3.50;99.90
52765;DHT22;38650;44.536;18.664;2023-02-01T00:38:44;3.50;99.90
52765;DHT22;38650;44.536;18.664;2023-02-01T00:41:15;3.60;99.90
52765;DHT22;38650;44.536;18.664;2023-02-01T00:43:42;3.60;99.90
52765;DHT22;38650;44.536;18.664;2023-02-01T00:46:08;3.60;99.90
52765;DHT22;38650;44.536;18.664;2023-02-01T00:48:34;3.60;99.90
52765;DHT22;38650;44.536;18.664;2023-02-01T00:51:04;3.60;99.90
52765;DHT22;38650;44.536;18.664;2023-02-01T00:53:31;3.70;99.90
52765;DHT22;38650;44.536;18.664;2023-02-01T00:55:57;3.70;99.90
52765;DHT22;38650;44.536;18.664;2023-02-01T00:58:23;3.80;99.90
52765;DHT22;38650;44.536;18.664;2023-02-01T01:03:49;3.80;99.90
52765;DHT22;38650;44.536;18.664;2023-02-01T01:06:19;3.80;99.90
52765;DHT22;38650;44.536;18.664;2023-02-01T01:08:45;3.80;99.90
52765;DHT22;38650;44.536;18.664;2023-02-01T01:11:14;3.90;99.90
52765;DHT22;38650;44.536;18.664;2023-02-01T01:13:40;3.90;99.90
52765;DHT22;38650;44.536;18.664;2023-02-01T01:16:08;4.00;99.90
52765;DHT22;38650;44.536;18.664;2023-02-01T01:18:34;4.00;99.90
52765;DHT22;38650;44.536;18.664;2023-02-01T01:21:00;3.90;99.90
52765;DHT22;38650;44.536;18.664;2023-02-01T01:23:27;3.90;99.90
52765;DHT22;38650;44.536;18.664;2023-02-01T01:25:53;3.80;99.90
52765;DHT22;38650;44.536;18.664;2023-02-01T01:28:18;3.80;99.90
52765;DHT22;38650;44.536;18.664;2023-02-01T01:30:44;3.80;99.90
52765;DHT22;38650;44.536;18.664;2023-02-01T01:33:10;3.80;99.90
52765;DHT22;38650;44.536;18.664;2023-02-01T01:35:36;3.80;99.90
52765;DHT22;38650;44.536;18.664;2023-02-01T01:38:02;3.80;99.90
52765;DHT22;38650;44.536;18.664;2023-02-01T07:41:14;2.30;99.90
52765;DHT22;38650;44.536;18.664;2023-02-01T07:43:41;4.10;99.90
52765;DHT22;38650;44.536;18.664;2023-02-01T07:46:07;6.90;99.90
52765;DHT22;38650;44.536;18.664;2023-02-01T07:48:34;8.80;99.20
52765;DHT22;38650;44.536;18.664;2023-02-01T07:51:02;8.20;98.00
52765;DHT22;38650;44.536;18.664;2023-02-01T07:53:29;7.80;98.20
52765;DHT22;38650;44.536;18.664;2023-02-01T07:55:55;7.60;99.30
52765;DHT22;38650;44.536;18.664;2023-02-01T07:58:22;8.00;99.10
52765;DHT22;38650;44.536;18.664;2023-02-01T08:00:48;9.10;94.70
52765;DHT22;38650;44.536;18.664;2023-02-01T08:03:32;10.50;92.10
52765;DHT22;38650;44.536;18.664;2023-02-01T08:05:57;10.10;87.40
52765;DHT22;38650;44.536;18.664;2023-02-01T08:08:23;9.20;89.30
52765;DHT22;38650;44.536;18.664;2023-02-01T08:11:00;8.70;89.00
52765;DHT22;38650;44.536;18.664;2023-02-01T08:13:27;8.70;91.50
52765;DHT22;38650;44.536;18.664;2023-02-01T08:16:00;10.60;84.30
52765;DHT22;38650;44.536;18.664;2023-02-01T08:18:26;12.40;73.50
52765;DHT22;38650;44.536;18.664;2023-02-01T08:20:53;12.90;62.30
52765;DHT22;38650;44.536;18.664;2023-02-01T08:23:19;13.90;59.10
52765;DHT22;38650;44.536;18.664;2023-02-01T08:25:45;15.20;57.50
52765;DHT22;38650;44.536;18.664;2023-02-01T08:28:12;15.30;54.70
52765;DHT22;38650;44.536;18.664;2023-02-01T08:30:38;15.40;54.30
52765;DHT22;38650;44.536;18.664;2023-02-01T08:33:05;15.50;53.00
52765;DHT22;38650;44.536;18.664;2023-02-01T08:35:38;15.80;54.10
52765;DHT22;38650;44.536;18.664;2023-02-01T08:38:04;16.00;53.10
52765;DHT22;38650;44.536;18.664;2023-02-01T08:40:30;16.40;50.50
52765;DHT22;38650;44.536;18.664;2023-02-01T08:42:57;16.70;49.60
52765;DHT22;38650;44.536;18.664;2023-02-01T08:45:26;15.80;50.10
52765;DHT22;38650;44.536;18.664;2023-02-01T08:47:53;15.10;52.60
52765;DHT22;38650;44.536;18.664;2023-02-01T08:50:20;14.60;52.10
52765;DHT22;38650;44.536;18.664;2023-02-01T08:52:47;14.10;53.00
52765;DHT22;38650;44.536;18.664;2023-02-01T08:55:14;14.20;53.70
52765;DHT22;38650;44.536;18.664;2023-02-01T08:57:41;14.10;53.90
52765;DHT22;38650;44.536;18.664;2023-02-01T09:00:09;13.40;54.50
52765;DHT22;38650;44.536;18.664;2023-02-01T09:02:37;12.60;57.10
52765;DHT22;38650;44.536;18.664;2023-02-01T09:05:04;12.20;59.20
52765;DHT22;38650;44.536;18.664;2023-02-01T09:07:30;12.40;59.00
52765;DHT22;38650;44.536;18.664;2023-02-01T09:09:56;12.20;59.00
52765;DHT22;38650;44.536;18.664;2023-02-01T09:12:25;11.90;60.00
52765;DHT22;38650;44.536;18.664;2023-02-01T09:14:51;11.90;60.30
52765;DHT22;38650;44.536;18.664;2023-02-01T09:17:17;11.50;59.50
52765;DHT22;38650;44.536;18.664;2023-02-01T09:19:42;11.70;59.60
52765;DHT22;38650;44.536;18.664;2023-02-01T09:22:08;11.90;61.10
52765;DHT22;38650;44.536;18.664;2023-02-01T09:24:34;11.90;57.60
52765;DHT22;38650;44.536;18.664;2023-02-01T09:27:00;11.80;55.90
52765;DHT22;38650;44.536;18.664;2023-02-01T09:29:25;11.50;57.70
52765;DHT22;38650;44.536;18.664;2023-02-01T09:31:51;11.50;58.00
52765;DHT22;38650;44.536;18.664;2023-02-01T09:34:17;11.50;56.40
52765;DHT22;38650;44.536;18.664;2023-02-01T09:36:43;11.70;56.70
52765;DHT22;38650;44.536;18.664;2023-02-01T09:39:09;11.80;54.60
52765;DHT22;38650;44.536;18.664;2023-02-01T09:41:51;12.10;56.00
52765;DHT22;38650;44.536;18.664;2023-02-01T09:47:00;13.30;57.10
52765;DHT22;38650;44.536;18.664;2023-02-01T09:49:34;13.60;52.70
52765;DHT22;38650;44.536;18.664;2023-02-01T09:52:07;13.90;50.20
52765;DHT22;38650;44.536;18.664;2023-02-01T09:54:55;14.20;50.20
52765;DHT22;38650;44.536;18.664;2023-02-01T10:00:18;14.60;50.50
52765;DHT22;38650;44.536;18.664;2023-02-01T10:02:49;15.10;48.20
52765;DHT22;38650;44.536;18.664;2023-02-01T10:06:09;15.40;47.60
52765;DHT22;38650;44.536;18.664;2023-02-01T10:11:03;16.10;46.60
52765;DHT22;38650;44.536;18.664;2023-02-01T10:13:48;16.10;46.20
52765;DHT22;38650;44.536;18.664;2023-02-01T10:16:48;16.00;42.20
52765;DHT22;38650;44.536;18.664;2023-02-01T10:22:08;15.80;43.40
52765;DHT22;38650;44.536;18.664;2023-02-01T10:24:39;15.70;45.10
52765;DHT22;38650;44.536;18.664;2023-02-01T10:27:22;15.90;43.60
52765;DHT22;38650;44.536;18.664;2023-02-01T10:29:59;16.00;43.90
52765;DHT22;38650;44.536;18.664;2023-02-01T10:32:33;16.10;44.20
52765;DHT22;38650;44.536;18.664;2023-02-01T10:35:17;16.30;46.10
52765;DHT22;38650;44.536;18.664;2023-02-01T10:37:44;16.40;47.20
52765;DHT22;38650;44.536;18.664;2023-02-01T10:40:26;16.40;44.10
52765;DHT22;38650;44.536;18.664;2023-02-01T10:43:23;16.10;44.50
52765;DHT22;38650;44.536;18.664;2023-02-01T10:45:53;16.00;45.00
52765;DHT22;38650;44.536;18.664;2023-02-01T10:48:20;16.20;45.50
52765;DHT22;38650;44.536;18.664;2023-02-01T10:53:44;16.10;45.40
52765;DHT22;38650;44.536;18.664;2023-02-01T10:56:13;15.90;44.50
52765;DHT22;38650;44.536;18.664;2023-02-01T10:58:46;15.80;49.00
52765;DHT22;38650;44.536;18.664;2023-02-01T11:01:22;15.90;48.70
52765;DHT22;38650;44.536;18.664;2023-02-01T11:03:56;15.90;47.40
52765;DHT22;38650;44.536;18.664;2023-02-01T11:08:56;15.50;48.40
52765;DHT22;38650;44.536;18.664;2023-02-01T11:11:22;15.50;45.70
52765;DHT22;38650;44.536;18.664;2023-02-01T11:13:57;15.50;46.00
52765;DHT22;38650;44.536;18.664;2023-02-01T11:16:31;15.50;47.50
52765;DHT22;38650;44.536;18.664;2023-02-01T11:18:58;15.60;46.70
52765;DHT22;38650;44.536;18.664;2023-02-01T11:21:27;15.50;45.40
52765;DHT22;38650;44.536;18.664;2023-02-01T11:23:53;15.30;46.90
52765;DHT22;38650;44.536;18.664;2023-02-01T11:26:26;15.30;46.10
52765;DHT22;38650;44.536;18.664;2023-02-01T11:29:04;15.30;45.50
52765;DHT22;38650;44.536;18.664;2023-02-01T11:32:13;15.20;45.50
52765;DHT22;38650;44.536;18.664;2023-02-01T11:34:50;15.10;45.30
52765;DHT22;38650;44.536;18.664;2023-02-01T11:37:21;15.20;46.40
52765;DHT22;38650;44.536;18.664;2023-02-01T11:39:58;15.30;46.30
52765;DHT22;38650;44.536;18.664;2023-02-01T11:42:26;15.50;46.00
52765;DHT22;38650;44.536;18.664;2023-02-01T11:48:15;15.70;45.00
52765;DHT22;38650;44.536;18.664;2023-02-01T12:06:48;14.70;45.90
52765;DHT22;38650;44.536;18.664;2023-02-01T12:09:26;14.80;46.10
52765;DHT22;38650;44.536;18.664;2023-02-01T12:15:15;14.60;52.60
52765;DHT22;38650;44.536;18.664;2023-02-01T12:23:49;14.70;46.30
52765;DHT22;38650;44.536;18.664;2023-02-01T12:26:42;14.60;47.10
52765;DHT22;38650;44.536;18.664;2023-02-01T12:43:19;13.90;46.60
52765;DHT22;38650;44.536;18.664;2023-02-01T12:46:04;13.80;48.20
52765;DHT22;38650;44.536;18.664;2023-02-01T12:48:41;13.90;48.20
52765;DHT22;38650;44.536;18.664;2023-02-01T12:51:16;13.80;47.40
52765;DHT22;38650;44.536;18.664;2023-02-01T12:54:00;13.70;49.00
52765;DHT22;38650;44.536;18.664;2023-02-01T12:59:04;13.40;49.30
52765;DHT22;38650;44.536;18.664;2023-02-01T13:07:20;13.50;49.50
52765;DHT22;38650;44.536;18.664;2023-02-01T13:10:11;13.30;48.70
52765;DHT22;38650;44.536;18.664;2023-02-01T13:12:57;13.30;53.50
52765;DHT22;38650;44.536;18.664;2023-02-01T13:15:36;13.10;56.20
52765;DHT22;38650;44.536;18.664;2023-02-01T13:18:06;12.80;57.10
52765;DHT22;38650;44.536;18.664;2023-02-01T13:20:49;12.40;59.90
52765;DHT22;38650;44.536;18.664;2023-02-01T13:23:31;12.20;60.30
52765;DHT22;38650;44.536;18.664;2023-02-01T13:26:02;12.10;62.70
52765;DHT22;38650;44.536;18.664;2023-02-01T13:28:51;11.80;62.80
52765;DHT22;38650;44.536;18.664;2023-02-01T13:37:31;11.30;64.90
52765;DHT22;38650;44.536;18.664;2023-02-01T13:43:05;11.20;66.50
52765;DHT22;38650;44.536;18.664;2023-02-01T13:45:34;11.30;66.60
52765;DHT22;38650;44.536;18.664;2023-02-01T13:48:04;11.20;66.70
52765;DHT22;38650;44.536;18.664;2023-02-01T13:50:37;11.10;66.80
52765;DHT22;38650;44.536;18.664;2023-02-01T13:53:15;11.10;67.80
52765;DHT22;38650;44.536;18.664;2023-02-01T13:55:44;11.10;69.30
52765;DHT22;38650;44.536;18.664;2023-02-01T14:00:46;11.20;71.30
52765;DHT22;38650;44.536;18.664;2023-02-01T14:03:15;11.10;72.40
52765;DHT22;38650;44.536;18.664;2023-02-01T14:08:12;11.00;77.30
52765;DHT22;38650;44.536;18.664;2023-02-01T14:13:34;10.70;76.60
52765;DHT22;38650;44.536;18.664;2023-02-01T14:23:43;10.30;79.40
52765;DHT22;38650;44.536;18.664;2023-02-01T14:26:15;10.20;81.40
52765;DHT22;38650;44.536;18.664;2023-02-01T14:29:10;10.00;83.90
52765;DHT22;38650;44.536;18.664;2023-02-01T14:37:03;10.00;87.70
52765;DHT22;38650;44.536;18.664;2023-02-01T14:44:49;9.70;89.10
52765;DHT22;38650;44.536;18.664;2023-02-01T15:00:56;9.00;97.30
52765;DHT22;38650;44.536;18.664;2023-02-01T15:06:23;8.90;99.20
52765;DHT22;38650;44.536;18.664;2023-02-01T15:08:56;8.80;98.70
52765;DHT22;38650;44.536;18.664;2023-02-01T15:11:22;8.80;98.80
52765;DHT22;38650;44.536;18.664;2023-02-01T15:13:50;8.90;98.30
52765;DHT22;38650;44.536;18.664;2023-02-01T15:16:20;8.80;97.60
52765;DHT22;38650;44.536;18.664;2023-02-01T15:18:46;8.60;97.40
52765;DHT22;38650;44.536;18.664;2023-02-01T15:21:23;8.40;97.00
52765;DHT22;38650;44.536;18.664;2023-02-01T15:23:49;8.20;97.90
52765;DHT22;38650;44.536;18.664;2023-02-01T15:26:29;8.40;96.70
52765;DHT22;38650;44.536;18.664;2023-02-01T15:28:58;8.60;95.40
52765;DHT22;38650;44.536;18.664;2023-02-01T15:31:39;8.60;97.60
52765;DHT22;38650;44.536;18.664;2023-02-01T15:34:06;8.50;98.00
52765;DHT22;38650;44.536;18.664;2023-02-01T15:36:32;8.40;96.60
52765;DHT22;38650;44.536;18.664;2023-02-01T15:39:22;8.40;97.70
52765;DHT22;38650;44.536;18.664;2023-02-01T15:42:11;8.30;98.20
52765;DHT22;38650;44.536;18.664;2023-02-01T15:44:44;8.20;98.60
52765;DHT22;38650;44.536;18.664;2023-02-01T15:47:21;8.10;99.90
52765;DHT22;38650;44.536;18.664;2023-02-01T15:49:54;7.70;99.90
52765;DHT22;38650;44.536;18.664;2023-02-01T15:52:25;7.50;99.90
52765;DHT22;38650;44.536;18.664;2023-02-01T15:54:56;7.50;99.90
52765;DHT22;38650;44.536;18.664;2023-02-01T15:57:29;7.70;99.90
52765;DHT22;38650;44.536;18.664;2023-02-01T16:02:56;8.10;97.50
52765;DHT22;38650;44.536;18.664;2023-02-01T16:05:40;8.20;97.40
52765;DHT22;38650;44.536;18.664;2023-02-01T16:08:19;8.40;97.70
52765;DHT22;38650;44.536;18.664;2023-02-01T16:10:48;8.40;97.00
52765;DHT22;38650;44.536;18.664;2023-02-01T16:13:15;8.50;97.00
52765;DHT22;38650;44.536;18.664;2023-02-01T16:15:42;8.40;98.20
52765;DHT22;38650;44.536;18.664;2023-02-01T16:18:08;8.10;99.90
52765;DHT22;38650;44.536;18.664;2023-02-01T16:20:36;8.00;99.70
52765;DHT22;38650;44.536;18.664;2023-02-01T16:23:03;7.90;99.90
52765;DHT22;38650;44.536;18.664;2023-02-01T16:25:29;7.70;99.90
52765;DHT22;38650;44.536;18.664;2023-02-01T16:27:55;7.70;99.90
52765;DHT22;38650;44.536;18.664;2023-02-01T16:30:21;7.70;99.90
52765;DHT22;38650;44.536;18.664;2023-02-01T16:32:58;7.70;99.90
52765;DHT22;38650;44.536;18.664;2023-02-01T16:35:33;7.60;99.90
52765;DHT22;38650;44.536;18.664;2023-02-01T16:38:05;7.60;99.90
52765;DHT22;38650;44.536;18.664;2023-02-01T16:40:38;7.50;99.90
52765;DHT22;38650;44.536;18.664;2023-02-01T16:43:21;7.40;99.90
52765;DHT22;38650;44.536;18.664;2023-02-01T16:45:48;7.40;99.90
52765;DHT22;38650;44.536;18.664;2023-02-01T16:48:27;7.30;99.90
52765;DHT22;38650;44.536;18.664;2023-02-01T16:50:56;7.40;99.90
52765;DHT22;38650;44.536;18.664;2023-02-01T16:53:23;7.30;99.90
52765;DHT22;38650;44.536;18.664;2023-02-01T16:55:50;7.30;99.90
52765;DHT22;38650;44.536;18.664;2023-02-01T16:58:18;7.20;99.90
52765;DHT22;38650;44.536;18.664;2023-02-01T17:00:44;7.00;99.90
52765;DHT22;38650;44.536;18.664;2023-02-01T17:03:13;6.90;99.90
52765;DHT22;38650;44.536;18.664;2023-02-01T17:05:43;6.90;99.90
52765;DHT22;38650;44.536;18.664;2023-02-01T17:08:13;6.90;99.90
52765;DHT22;38650;44.536;18.664;2023-02-01T17:10:40;7.00;99.90
52765;DHT22;38650;44.536;18.664;2023-02-01T17:13:11;7.10;99.90
52765;DHT22;38650;44.536;18.664;2023-02-01T17:15:37;7.30;99.90
52765;DHT22;38650;44.536;18.664;2023-02-01T17:18:04;7.50;99.90
52765;DHT22;38650;44.536;18.664;2023-02-01T17:20:31;7.40;99.90
52765;DHT22;38650;44.536;18.664;2023-02-01T17:22:57;7.40;99.90
52765;DHT22;38650;44.536;18.664;2023-02-01T17:25:23;7.20;99.90
52765;DHT22;38650;44.536;18.664;2023-02-01T17:27:51;7.20;99.90
52765;DHT22;38650;44.536;18.664;2023-02-01T17:30:17;7.20;99.90
52765;DHT22;38650;44.536;18.664;2023-02-01T17:32:43;7.20;99.90
52765;DHT22;38650;44.536;18.664;2023-02-01T17:35:24;7.40;99.90
52765;DHT22;38650;44.536;18.664;2023-02-01T17:37:51;7.40;99.90
52765;DHT22;38650;44.536;18.664;2023-02-01T17:40:17;7.40;99.90
52765;DHT22;38650;44.536;18.664;2023-02-01T17:42:43;7.40;99.90
52765;DHT22;38650;44.536;18.664;2023-02-01T17:47:45;7.30;99.90
52765;DHT22;38650;44.536;18.664;2023-02-01T17:50:12;7.30;99.90
52765;DHT22;38650;44.536;18.664;2023-02-01T17:52:38;7.40;99.90
52765;DHT22;38650;44.536;18.664;2023-02-01T17:55:33;7.40;99.90
52765;DHT22;38650;44.536;18.664;2023-02-01T17:57:59;7.40;99.90
52765;DHT22;38650;44.536;18.664;2023-02-01T18:00:25;7.40;99.90
52765;DHT22;38650;44.536;18.664;2023-02-01T18:02:51;7.30;99.90
52765;DHT22;38650;44.536;18.664;2023-02-01T18:05:21;7.20;99.90
52765;DHT22;38650;44.536;18.664;2023-02-01T18:07:48;7.20;99.90
52765;DHT22;38650;44.536;18.664;2023-02-01T18:10:13;7.10;99.90
52765;DHT22;38650;44.536;18.664;2023-02-01T18:12:40;7.00;99.90
52765;DHT22;38650;44.536;18.664;2023-02-01T18:15:17;7.00;99.90
52765;DHT22;38650;44.536;18.664;2023-02-01T18:17:43;6.90;99.90
52765;DHT22;38650;44.536;18.664;2023-02-01T18:20:17;6.70;99.90
52765;DHT22;38650;44.536;18.664;2023-02-01T18:22:43;6.70;99.90
52765;DHT22;38650;44.536;18.664;2023-02-01T18:25:20;6.70;99.90
52765;DHT22;38650;44.536;18.664;2023-02-01T18:27:47;6.80;99.90
52765;DHT22;38650;44.536;18.664;2023-02-01T18:30:13;6.90;99.90
52765;DHT22;38650;44.536;18.664;2023-02-01T18:32:40;6.90;99.90
52765;DHT22;38650;44.536;18.664;2023-02-01T18:35:23;6.90;99.90
52765;DHT22;38650;44.536;18.664;2023-02-01T18:37:50;6.90;99.90
52765;DHT22;38650;44.536;18.664;2023-02-01T18:40:18;6.50;99.90
52765;DHT22;38650;44.536;18.664;2023-02-01T18:42:44;6.10;99.90
52765;DHT22;38650;44.536;18.664;2023-02-01T18:47:48;5.80;99.90
52765;DHT22;38650;44.536;18.664;2023-02-01T18:50:15;6.10;99.90
52765;DHT22;38650;44.536;18.664;2023-02-01T18:52:41;6.50;99.90
52765;DHT22;38650;44.536;18.664;2023-02-01T18:55:07;6.60;99.90
52765;DHT22;38650;44.536;18.664;2023-02-01T18:57:34;6.70;99.90
52765;DHT22;38650;44.536;18.664;2023-02-01T18:59:59;6.70;99.90
52765;DHT22;38650;44.536;18.664;2023-02-01T19:02:26;6.80;99.90
52765;DHT22;38650;44.536;18.664;2023-02-01T19:04:52;6.80;99.90
52765;DHT22;38650;44.536;18.664;2023-02-01T19:07:17;6.90;99.90
52765;DHT22;38650;44.536;18.664;2023-02-01T19:09:43;6.90;99.90
52765;DHT22;38650;44.536;18.664;2023-02-01T19:12:09;6.80;99.90
52765;DHT22;38650;44.536;18.664;2023-02-01T19:14:34;6.70;99.90
52765;DHT22;38650;44.536;18.664;2023-02-01T19:17:00;6.60;99.90
52765;DHT22;38650;44.536;18.664;2023-02-01T19:19:26;6.70;99.90
52765;DHT22;38650;44.536;18.664;2023-02-01T19:21:52;6.70;99.90
52765;DHT22;38650;44.536;18.664;2023-02-01T19:24:18;6.50;99.90
52765;DHT22;38650;44.536;18.664;2023-02-01T19:26:43;6.40;99.90
52765;DHT22;38650;44.536;18.664;2023-02-01T19:29:09;6.30;99.90
52765;DHT22;38650;44.536;18.664;2023-02-01T19:31:35;6.20;99.90
52765;DHT22;38650;44.536;18.664;2023-02-01T19:34:01;6.10;99.90
52765;DHT22;38650;44.536;18.664;2023-02-01T19:36:27;6.00;99.90
52765;DHT22;38650;44.536;18.664;2023-02-01T19:38:52;5.90;99.90
52765;DHT22;38650;44.536;18.664;2023-02-01T19:41:19;5.70;99.90
52765;DHT22;38650;44.536;18.664;2023-02-01T19:43:44;5.80;99.90
52765;DHT22;38650;44.536;18.664;2023-02-01T19:46:10;5.80;99.90
52765;DHT22;38650;44.536;18.664;2023-02-01T19:48:36;5.90;99.90
52765;DHT22;38650;44.536;18.664;2023-02-01T19:51:02;5.90;99.90
52765;DHT22;38650;44.536;18.664;2023-02-01T19:53:29;5.90;99.90
52765;DHT22;38650;44.536;18.664;2023-02-01T19:55:56;5.90;99.90
52765;DHT22;38650;44.536;18.664;2023-02-01T19:58:23;5.90;99.90
52765;DHT22;38650;44.536;18.664;2023-02-01T20:00:56;5.70;99.90
52765;DHT22;38650;44.536;18.664;2023-02-01T20:03:23;5.70;99.90
52765;DHT22;38650;44.536;18.664;2023-02-01T20:05:53;5.70;99.90
52765;DHT22;38650;44.536;18.664;2023-02-01T20:08:20;5.70;99.90
52765;DHT22;38650;44.536;18.664;2023-02-01T20:10:46;5.70;99.90
52765;DHT22;38650;44.536;18.664;2023-02-01T20:13:12;5.60;99.90
52765;DHT22;38650;44.536;18.664;2023-02-01T20:15:37;5.50;99.90
52765;DHT22;38650;44.536;18.664;2023-02-01T20:18:03;5.60;99.90
52765;DHT22;38650;44.536;18.664;2023-02-01T20:20:30;5.60;99.90
52765;DHT22;38650;44.536;18.664;2023-02-01T20:22:56;5.50;99.90
52765;DHT22;38650;44.536;18.664;2023-02-01T20:25:22;5.40;99.90
52765;DHT22;38650;44.536;18.664;2023-02-01T20:27:48;5.40;99.90
52765;DHT22;38650;44.536;18.664;2023-02-01T20:30:17;5.40;99.90
52765;DHT22;38650;44.536;18.664;2023-02-01T20:32:48;5.40;99.90
52765;DHT22;38650;44.536;18.664;2023-02-01T20:35:14;5.40;99.90
52765;DHT22;38650;44.536;18.664;2023-02-01T20:37:41;5.40;99.90
52765;DHT22;38650;44.536;18.664;2023-02-01T20:40:10;5.30;99.90
52765;DHT22;38650;44.536;18.664;2023-02-01T20:42:36;5.20;99.90
52765;DHT22;38650;44.536;18.664;2023-02-01T20:45:03;5.20;99.90
52765;DHT22;38650;44.536;18.664;2023-02-01T20:47:29;5.30;99.90
52765;DHT22;38650;44.536;18.664;2023-02-01T20:49:55;5.30;99.90
52765;DHT22;38650;44.536;18.664;2023-02-01T20:52:21;5.20;99.90
52765;DHT22;38650;44.536;18.664;2023-02-01T20:54:47;5.20;99.90
52765;DHT22;38650;44.536;18.664;2023-02-01T20:57:13;5.30;99.90
52765;DHT22;38650;44.536;18.664;2023-02-01T20:59:38;5.30;99.90
52765;DHT22;38650;44.536;18.664;2023-02-01T21:02:04;5.20;99.90
52765;DHT22;38650;44.536;18.664;2023-02-01T21:04:30;5.10;99.90
52765;DHT22;38650;44.536;18.664;2023-02-01T21:06:58;5.00;99.90
52765;DHT22;38650;44.536;18.664;2023-02-01T21:09:25;5.00;99.90
52765;DHT22;38650;44.536;18.664;2023-02-01T21:11:52;5.00;99.90
52765;DHT22;38650;44.536;18.664;2023-02-01T21:14:18;5.00;99.90
52765;DHT22;38650;44.536;18.664;2023-02-01T21:16:45;5.00;99.90
52765;DHT22;38650;44.536;18.664;2023-02-01T21:19:11;5.00;99.90
52765;DHT22;38650;44.536;18.664;2023-02-01T21:21:37;5.00;99.90
52765;DHT22;38650;44.536;18.664;2023-02-01T21:24:03;5.00;99.90
52765;DHT22;38650;44.536;18.664;2023-02-01T21:26:29;4.90;99.90
52765;DHT22;38650;44.536;18.664;2023-02-01T21:29:10;4.80;99.90
52765;DHT22;38650;44.536;18.664;2023-02-01T21:31:36;4.80;99.90
52765;DHT22;38650;44.536;18.664;2023-02-01T21:34:02;4.70;99.90
52765;DHT22;38650;44.536;18.664;2023-02-01T21:36:28;4.70;99.90
52765;DHT22;38650;44.536;18.664;2023-02-01T21:38:59;4.60;99.90
52765;DHT22;38650;44.536;18.664;2023-02-01T21:41:29;4.60;99.90
52765;DHT22;38650;44.536;18.664;2023-02-01T21:44:13;4.60;99.90
52765;DHT22;38650;44.536;18.664;2023-02-01T21:46:39;4.70;99.90
52765;DHT22;38650;44.536;18.664;2023-02-01T21:49:05;4.80;99.90
52765;DHT22;38650;44.536;18.664;2023-02-01T21:51:31;4.80;99.90
52765;DHT22;38650;44.536;18.664;2023-02-01T21:53:58;4.80;99.90
52765;DHT22;38650;44.536;18.664;2023-02-01T21:56:24;4.80;99.90
52765;DHT22;38650;44.536;18.664;2023-02-01T21:58:50;4.80;99.90
52765;DHT22;38650;44.536;18.664;2023-02-01T22:01:16;4.80;99.90
52765;DHT22;38650;44.536;18.664;2023-02-01T22:03:41;4.80;99.90
52765;DHT22;38650;44.536;18.664;2023-02-01T22:06:07;4.90;99.90
52765;DHT22;38650;44.536;18.664;2023-02-01T22:08:37;4.90;99.90
52765;DHT22;38650;44.536;18.664;2023-02-01T22:11:03;4.90;99.90
52765;DHT22;38650;44.536;18.664;2023-02-01T22:13:29;4.80;99.90
52765;DHT22;38650;44.536;18.664;2023-02-01T22:15:56;4.80;99.90
52765;DHT22;38650;44.536;18.664;2023-02-01T22:18:22;4.70;99.90
52765;DHT22;38650;44.536;18.664;2023-02-01T22:20:48;4.60;99.90
52765;DHT22;38650;44.536;18.664;2023-02-01T22:23:17;4.50;99.90
52765;DHT22;38650;44.536;18.664;2023-02-01T22:25:43;4.50;99.90
52765;DHT22;38650;44.536;18.664;2023-02-01T22:28:09;4.50;99.90
52765;DHT22;38650;44.536;18.664;2023-02-01T22:30:35;4.50;99.90
52765;DHT22;38650;44.536;18.664;2023-02-01T22:33:01;4.60;99.90
52765;DHT22;38650;44.536;18.664;2023-02-01T22:35:26;4.60;99.90
52765;DHT22;38650;44.536;18.664;2023-02-01T22:37:52;4.60;99.90
52765;DHT22;38650;44.536;18.664;2023-02-01T22:40:18;4.70;99.90
52765;DHT22;38650;44.536;18.664;2023-02-01T22:42:45;4.70;99.90
52765;DHT22;38650;44.536;18.664;2023-02-01T22:45:11;4.70;99.90
52765;DHT22;38650;44.536;18.664;2023-02-01T22:47:37;4.70;99.90
52765;DHT22;38650;44.536;18.664;2023-02-01T22:50:03;4.70;99.90
52765;DHT22;38650;44.536;18.664;2023-02-01T22:52:29;4.70;99.90
52765;DHT22;38650;44.536;18.664;2023-02-01T22:54:55;4.70;99.90
52765;DHT22;38650;44.536;18.664;2023-02-01T22:57:20;4.70;99.90
52765;DHT22;38650;44.536;18.664;2023-02-01T22:59:46;4.70;99.90
52765;DHT22;38650;44.536;18.664;2023-02-01T23:02:12;4.70;99.90
52765;DHT22;38650;44.536;18.664;2023-02-01T23:04:38;4.70;99.90
52765;DHT22;38650;44.536;18.664;2023-02-01T23:07:03;4.70;99.90
52765;DHT22;38650;44.536;18.664;2023-02-01T23:09:29;4.70;99.90
52765;DHT22;38650;44.536;18.664;2023-02-01T23:11:55;4.70;99.90
52765;DHT22;38650;44.536;18.664;2023-02-01T23:14:20;4.70;99.90
52765;DHT22;38650;44.536;18.664;2023-02-01T23:16:47;4.80;99.90
52765;DHT22;38650;44.536;18.664;2023-02-01T23:19:14;4.80;99.90
52765;DHT22;38650;44.536;18.664;2023-02-01T23:21:40;4.80;99.90
52765;DHT22;38650;44.536;18.664;2023-02-01T23:24:06;4.80;99.90
52765;DHT22;38650;44.536;18.664;2023-02-01T23:26:34;4.80;99.90
52765;DHT22;38650;44.536;18.664;2023-02-01T23:29:01;4.80;99.90
52765;DHT22;38650;44.536;18.664;2023-02-01T23:31:29;4.80;99.90
52765;DHT22;38650;44.536;18.664;2023-02-01T23:33:56;4.80;99.90
52765;DHT22;38650;44.536;18.664;2023-02-01T23:36:24;4.80;99.90
52765;DHT22;38650;44.536;18.664;2023-02-01T23:38:51;4.70;99.90
52765;DHT22;38650;44.536;18.664;2023-02-01T23:41:18;4.70;99.90
52765;DHT22;38650;44.536;18.664;2023-02-01T23:43:44;4.70;99.90
52765;DHT22;38650;44.536;18.664;2023-02-01T23:48:53;4.50;99.90
52765;DHT22;38650;44.536;18.664;2023-02-01T23:51:20;4.60;99.90
52765;DHT22;38650;44.536;18.664;2023-02-01T23:53:46;4.60;99.90
52765;DHT22;38650;44.536;18.664;2023-02-01T23:56:25;4.60;99.90